createdAt,value
2023-02-28T01:13:37.054Z,62.69
2023-02-28T01:17:08.870Z,62.71
2023-02-28T01:24:00.438Z,63.02
2023-02-28T02:03:34.713Z,64.19
2023-02-28T02:24:19.459Z,64.80
2023-02-28T02:28:18.058Z,65.17
2023-02-28T02:31:38.415Z,65.30
2023-02-28T02:34:31.215Z,65.37
2023-02-28T02:38:50.264Z,65.27
2023-02-28T02:46:48.403Z,65.53
2023-02-28T02:54:50.817Z,65.77
2023-02-28T02:58:35.471Z,65.94
2023-02-28T03:02:59.052Z,66.16
2023-02-28T03:25:17.664Z,66.39
2023-02-28T03:28:21.023Z,66.16
2023-02-28T03:31:31.211Z,66.20
2023-02-28T03:34:29.374Z,66.36
2023-02-28T03:37:17.723Z,66.13
2023-02-28T03:41:01.865Z,66.16
2023-02-28T03:45:32.767Z,66.50
2023-02-28T05:13:34.100Z,67.08
2023-02-28T05:16:13.781Z,66.95
2023-02-28T05:19:17.652Z,66.95
2023-02-28T05:22:37.996Z,66.94
2023-02-28T05:37:33.310Z,63.20
2023-02-28T05:40:23.482Z,61.80
2023-02-28T05:43:51.610Z,62.79
2023-02-28T05:46:33.067Z,63.42
2023-02-28T05:49:38.985Z,63.74
2023-02-28T05:52:51.082Z,63.91
2023-02-28T05:56:04.918Z,64.33
2023-02-28T05:58:57.469Z,64.61
2023-02-28T06:02:01.591Z,64.76
2023-02-28T06:05:01.615Z,64.87
2023-02-28T06:07:50.460Z,64.97
2023-02-28T06:11:01.994Z,65.04
2023-02-28T06:13:56.683Z,65.11
2023-02-28T06:16:48.944Z,65.09
2023-02-28T06:20:17.370Z,65.11
2023-02-28T06:23:54.367Z,65.27
2023-02-28T06:27:12.006Z,65.33
2023-02-28T06:33:32.011Z,65.66
2023-02-28T06:36:25.609Z,65.52
2023-02-28T06:39:04.058Z,65.49
2023-02-28T06:45:45.208Z,65.24
2023-02-28T06:48:57.700Z,65.30
2023-02-28T06:52:21.477Z,65.25
2023-02-28T06:55:20.142Z,65.13
2023-02-28T06:58:16.093Z,65.02
2023-02-28T07:00:55.596Z,64.83
2023-02-28T07:03:29.704Z,64.74
2023-02-28T07:06:14.104Z,64.40
2023-02-28T07:13:10.116Z,64.06
2023-02-28T07:15:54.145Z,63.58
2023-02-28T07:18:39.842Z,63.08
2023-02-28T07:21:35.247Z,62.94
2023-02-28T07:24:54.759Z,62.87
2023-02-28T07:27:40.877Z,62.68
2023-02-28T07:30:33.052Z,62.96
2023-02-28T07:33:28.991Z,62.78
2023-02-28T07:36:16.941Z,62.69
2023-02-28T07:38:54.685Z,61.71
2023-02-28T07:41:44.661Z,61.20
2023-02-28T07:44:45.751Z,60.99
2023-02-28T07:47:38.940Z,61.41
2023-02-28T07:50:31.488Z,60.27
2023-02-28T07:53:23.893Z,58.96
2023-02-28T07:56:19.952Z,58.26
2023-02-28T07:59:09.415Z,57.59
2023-02-28T08:01:58.857Z,56.72
2023-02-28T08:04:53.082Z,55.23
2023-02-28T08:07:38.498Z,55.12
2023-02-28T08:10:19.292Z,55.39
2023-02-28T08:13:10.480Z,53.62
2023-02-28T08:15:56.932Z,52.75
2023-02-28T08:18:54.737Z,51.56
2023-02-28T08:21:34.543Z,51.49
2023-02-28T08:24:23.454Z,51.80
2023-02-28T08:27:10.974Z,51.23
2023-02-28T08:30:03.924Z,49.62
2023-02-28T08:32:58.279Z,49.48
2023-02-28T08:35:53.207Z,48.80
2023-02-28T08:38:34.703Z,48.43
2023-02-28T08:41:13.220Z,47.72
2023-02-28T08:43:56.195Z,46.96
2023-02-28T08:46:53.388Z,46.04
2023-02-28T08:49:49.949Z,45.83
2023-02-28T08:52:40.313Z,46.14
2023-02-28T08:55:31.750Z,44.79
2023-02-28T08:58:29.894Z,44.92
2023-02-28T09:01:36.931Z,44.87
2023-02-28T09:04:27.554Z,45.00
2023-02-28T09:07:09.238Z,44.74
2023-02-28T09:10:00.726Z,45.18
2023-02-28T09:12:47.074Z,45.38
2023-02-28T09:15:44.445Z,44.96
2023-02-28T09:18:24.663Z,44.36
2023-02-28T09:21:02.722Z,43.76
2023-02-28T09:23:45.655Z,43.86
2023-02-28T09:26:28.147Z,43.92
2023-02-28T09:29:21.096Z,44.01
2023-02-28T09:32:29.134Z,44.22
2023-02-28T09:35:25.541Z,43.64
2023-02-28T09:38:17.801Z,44.22
2023-02-28T09:42:02.858Z,44.26
2023-02-28T09:46:39.086Z,44.94
2023-02-28T09:49:13.919Z,45.27
2023-02-28T09:52:42.103Z,44.51
2023-02-28T09:56:46.288Z,44.07
2023-02-28T10:00:18.256Z,44.65
2023-02-28T10:03:35.521Z,44.77
2023-02-28T10:07:25.956Z,44.33
2023-02-28T10:11:11.638Z,44.42
2023-02-28T10:14:09.792Z,43.98
2023-02-28T10:17:17.584Z,43.31
2023-02-28T10:20:12.663Z,43.17
2023-02-28T10:23:25.522Z,43.17
2023-02-28T10:26:34.368Z,42.76
2023-02-28T10:29:14.800Z,42.46
2023-02-28T10:31:56.539Z,42.12
2023-02-28T10:34:40.134Z,40.35
2023-02-28T10:37:40.715Z,39.70
2023-02-28T10:40:25.440Z,38.07
2023-02-28T10:43:27.878Z,38.03
2023-02-28T10:46:17.301Z,37.36
2023-02-28T10:49:34.443Z,36.80
2023-02-28T10:52:38.279Z,34.89
2023-02-28T10:55:29.954Z,33.05
2023-02-28T10:58:27.816Z,32.14
2023-02-28T11:01:47.668Z,31.46
2023-02-28T11:04:50.909Z,30.22
2023-02-28T11:07:53.640Z,29.63
2023-02-28T11:10:41.125Z,28.88
2023-02-28T11:13:44.597Z,29.44
2023-02-28T11:16:57.684Z,28.45
2023-02-28T11:20:34.206Z,28.02
2023-02-28T11:23:22.676Z,27.63
2023-02-28T11:26:19.490Z,29.02
2023-02-28T11:35:37.807Z,31.64
2023-02-28T11:39:54.390Z,33.15
2023-02-28T11:43:31.278Z,34.73
2023-02-28T11:51:20.133Z,37.19
2023-02-28T11:54:10.139Z,37.85
2023-02-28T13:42:12.988Z,42.08
2023-02-28T14:20:17.760Z,43.64
2023-02-28T15:03:17.573Z,42.70
2023-02-28T15:06:58.221Z,43.47
2023-02-28T15:11:02.589Z,43.83
2023-02-28T15:14:32.607Z,44.40
2023-02-28T15:23:09.588Z,45.04
2023-02-28T15:26:54.656Z,45.41
2023-02-28T15:31:34.011Z,45.57
2023-02-28T15:36:17.881Z,45.81
2023-02-28T15:43:19.921Z,46.48
2023-02-28T15:46:34.092Z,46.81
2023-02-28T15:50:06.221Z,46.96
2023-02-28T15:56:57.828Z,47.49
2023-02-28T16:00:28.060Z,47.62
2023-02-28T16:03:42.948Z,47.67
2023-02-28T16:06:21.157Z,47.63
2023-02-28T16:09:03.532Z,47.73
2023-02-28T16:11:59.215Z,47.82
2023-02-28T16:14:51.806Z,48.07
2023-02-28T16:18:00.261Z,48.07
2023-02-28T16:21:15.727Z,48.15
2023-02-28T16:24:14.231Z,48.28
2023-02-28T16:33:35.853Z,48.80
2023-02-28T16:36:25.954Z,48.81
2023-02-28T16:39:01.644Z,48.98
2023-02-28T16:41:41.718Z,49.05
2023-02-28T16:44:42.052Z,49.20
2023-02-28T16:47:38.418Z,49.57
2023-02-28T16:50:26.147Z,49.83
2023-02-28T16:52:56.693Z,49.99
2023-02-28T16:55:52.767Z,50.30
2023-02-28T16:58:41.600Z,50.69
2023-02-28T17:01:59.354Z,50.84
2023-02-28T17:04:48.248Z,51.09
2023-02-28T17:08:02.276Z,51.29
2023-02-28T17:11:17.888Z,51.61
2023-02-28T17:14:19.870Z,51.91
2023-02-28T17:17:22.082Z,52.18
2023-02-28T17:21:09.412Z,52.34
2023-02-28T17:24:56.866Z,52.36
2023-02-28T17:28:08.943Z,52.37
2023-02-28T17:30:55.910Z,52.38
2023-02-28T17:34:18.893Z,52.44
2023-02-28T17:37:34.497Z,52.73
2023-02-28T17:41:28.261Z,52.95
2023-02-28T17:45:24.005Z,53.11
2023-02-28T17:48:34.413Z,53.40
2023-02-28T17:51:18.863Z,53.46
2023-02-28T17:54:18.344Z,53.55
2023-02-28T17:57:39.749Z,53.65
2023-02-28T18:00:30.608Z,53.73
2023-02-28T18:03:14.450Z,53.74
2023-02-28T18:06:02.365Z,53.93
2023-02-28T18:09:38.463Z,54.06
2023-02-28T18:12:11.253Z,54.20
2023-02-28T18:14:52.262Z,54.27
2023-02-28T18:17:31.717Z,54.37
2023-02-28T18:20:06.910Z,54.59
2023-02-28T18:22:56.530Z,54.70
2023-02-28T18:25:31.167Z,55.04
2023-02-28T18:28:08.858Z,55.46
2023-02-28T18:30:45.100Z,55.58
2023-02-28T18:33:17.893Z,55.70
2023-02-28T18:36:01.226Z,55.96
2023-02-28T18:38:40.579Z,56.05
2023-02-28T18:41:14.568Z,56.28
2023-02-28T18:44:01.313Z,56.45
2023-02-28T18:46:53.430Z,56.58
2023-02-28T18:49:49.354Z,56.76
2023-02-28T18:52:26.124Z,56.90
2023-02-28T18:55:27.267Z,57.06
2023-02-28T18:58:08.502Z,57.27
2023-02-28T19:01:51.573Z,57.45
2023-02-28T19:04:59.357Z,57.88
2023-02-28T19:08:25.871Z,58.20
2023-02-28T19:11:40.701Z,58.41
2023-02-28T19:14:57.778Z,58.37
2023-02-28T19:17:50.571Z,58.69
2023-02-28T19:20:39.255Z,58.50
2023-02-28T19:23:19.226Z,58.65
2023-02-28T19:26:40.163Z,58.79
2023-02-28T19:29:41.104Z,59.01
2023-02-28T19:32:25.898Z,59.27
2023-02-28T19:35:09.431Z,59.40
2023-02-28T19:38:06.103Z,59.45
2023-02-28T19:40:46.347Z,59.64
2023-02-28T19:43:55.204Z,59.66
2023-02-28T19:47:05.688Z,59.80
2023-02-28T19:50:46.278Z,59.95
2023-02-28T19:54:10.714Z,60.31
2023-02-28T20:00:29.761Z,60.62
2023-02-28T20:03:26.397Z,60.68
2023-02-28T20:10:02.347Z,60.96
2023-02-28T20:47:45.098Z,62.52
2023-02-28T20:51:18.858Z,62.78
2023-02-28T20:54:28.482Z,62.88
2023-02-28T21:01:45.865Z,63.26
2023-02-28T21:05:06.255Z,63.30
2023-02-28T21:11:32.112Z,63.43
2023-02-28T21:14:39.976Z,63.47
2023-02-28T21:18:40.600Z,63.52
2023-02-28T21:24:56.753Z,63.67
2023-02-28T21:28:17.383Z,63.94
2023-02-28T21:31:30.119Z,64.04
2023-02-28T21:34:54.834Z,64.17
2023-02-28T21:38:04.382Z,64.30
2023-02-28T21:41:57.658Z,64.29
2023-02-28T21:45:34.190Z,64.50
2023-02-28T21:48:51.884Z,64.40
2023-02-28T21:52:15.896Z,64.66
2023-02-28T21:59:22.428Z,64.76
2023-02-28T22:02:42.534Z,65.03
2023-02-28T22:05:49.430Z,65.14
2023-02-28T22:09:19.329Z,65.29
2023-02-28T22:12:02.035Z,65.37
2023-02-28T22:14:34.514Z,65.34
2023-02-28T22:17:18.457Z,65.27
2023-02-28T22:19:51.026Z,65.33
2023-02-28T22:22:31.278Z,65.36
2023-02-28T22:28:05.799Z,65.40
2023-02-28T22:30:57.213Z,65.69
2023-02-28T22:33:31.094Z,65.85
2023-02-28T22:36:18.628Z,65.72
2023-02-28T22:39:28.369Z,65.72
2023-02-28T22:42:18.836Z,65.97
2023-02-28T22:51:29.636Z,66.19
2023-02-28T22:54:16.027Z,66.23
2023-02-28T22:57:06.793Z,66.07
2023-02-28T22:59:41.466Z,66.00
2023-02-28T23:02:30.803Z,66.02
2023-02-28T23:05:20.681Z,66.10
2023-02-28T23:08:10.648Z,66.26
2023-02-28T23:10:48.524Z,66.31
2023-02-28T23:13:27.849Z,66.43
2023-02-28T23:16:00.633Z,66.48
2023-02-28T23:18:38.511Z,66.37
2023-02-28T23:21:19.301Z,66.39
2023-02-28T23:24:10.196Z,66.45
2023-02-28T23:26:53.343Z,66.55
2023-02-28T23:29:32.189Z,66.57
2023-02-28T23:32:43.365Z,66.60
2023-02-28T23:35:24.614Z,66.71
2023-02-28T23:38:02.551Z,66.82
2023-02-28T23:40:47.921Z,66.95
2023-02-28T23:43:30.918Z,67.09
2023-02-28T23:46:05.521Z,67.12
2023-02-28T23:48:43.261Z,66.99
2023-02-28T23:51:19.052Z,66.92
